Time;durP1;ratioP1;P1;durP2;ratioP2;P2;SDS_P1;SDS_P2;PMS_P1;PMS_P2;Temp;Humidity;BMP_temperature;BMP_pressure;BME280_temperature;BME280_humidity;BME280_pressure;Samples;Min_cycle;Max_cycle;Signal;HPM_P1;HPM_P2
2022/03/05 00:00:31;;;;;;;;;;;-0.80;99.90;;;;;;5115527;28;19972;-51
2022/03/05 00:02:57;;;;;;;;;;;-0.80;1.00;;;;;;5115366;28;19920;-52
2022/03/05 00:05:25;;;;;;;;;;;-1.00;25.00;;;;;;5115008;28;19920;-49
2022/03/05 00:07:52;;;;;;;;;;;-1.00;99.90;;;;;;5115268;28;19923;-53
2022/03/05 00:10:19;;;;;;;;;;;-1.10;99.90;;;;;;5115203;28;19919;-54
2022/03/05 00:12:46;;;;;;;;;;;-1.10;1.00;;;;;;5115282;28;19977;-52
2022/03/05 00:15:12;;;;;;;;;;;-1.10;99.90;;;;;;5115038;28;19927;-49
2022/03/05 00:17:39;;;;;;;;;;;-1.20;1.00;;;;;;5106411;28;19919;-54
2022/03/05 00:20:06;;;;;;;;;;;-1.20;1.00;;;;;;5115378;28;19927;-52
2022/03/05 00:22:34;;;;;;;;;;;-1.30;99.90;;;;;;5115172;28;19920;-49
2022/03/05 00:25:00;;;;;;;;;;;-1.30;99.90;;;;;;5115261;28;19953;-50
2022/03/05 00:27:27;;;;;;;;;;;-1.30;1.00;;;;;;5114606;28;19996;-52
2022/03/05 00:29:53;;;;;;;;;;;-1.40;1.00;;;;;;5114927;28;19953;-50
2022/03/05 00:32:20;;;;;;;;;;;-1.40;90.20;;;;;;5114670;28;19923;-49
2022/03/05 00:34:47;;;;;;;;;;;-1.40;99.90;;;;;;5115175;28;19920;-50
2022/03/05 00:37:14;;;;;;;;;;;-1.50;1.00;;;;;;5114172;28;19928;-53
2022/03/05 00:39:42;;;;;;;;;;;-1.40;1.00;;;;;;5114692;28;19920;-50
2022/03/05 00:42:08;;;;;;;;;;;-1.40;1.00;;;;;;5114368;28;19919;-49
2022/03/05 00:44:35;;;;;;;;;;;-1.40;47.20;;;;;;5114670;28;19919;-51
2022/03/05 00:47:01;;;;;;;;;;;-1.40;95.00;;;;;;5114123;28;19919;-51
2022/03/05 00:49:28;;;;;;;;;;;-1.30;99.90;;;;;;5114036;28;19919;-50
2022/03/05 00:51:54;;;;;;;;;;;-1.30;99.90;;;;;;5114786;28;20039;-51
2022/03/05 00:54:21;;;;;;;;;;;-1.20;99.90;;;;;;5114309;28;19965;-50
2022/03/05 00:56:49;;;;;;;;;;;-1.20;61.80;;;;;;5114198;28;20350;-54
2022/03/05 00:59:15;;;;;;;;;;;-1.20;7.40;;;;;;5113961;28;19972;-50
2022/03/05 01:01:42;;;;;;;;;;;-1.20;1.00;;;;;;5114470;28;19919;-53
2022/03/05 01:04:09;;;;;;;;;;;-1.20;1.00;;;;;;5114679;28;19920;-53
2022/03/05 01:06:35;;;;;;;;;;;-1.20;1.00;;;;;;5114356;28;19920;-54
2022/03/05 01:09:03;;;;;;;;;;;-1.30;1.00;;;;;;5115026;28;19926;-53
2022/03/05 01:11:29;;;;;;;;;;;-1.30;1.00;;;;;;5115371;28;19920;-53
2022/03/05 01:13:57;;;;;;;;;;;-1.30;1.00;;;;;;5115428;28;20415;-53
2022/03/05 01:16:24;;;;;;;;;;;-1.20;1.00;;;;;;5114566;28;19973;-52
2022/03/05 01:18:51;;;;;;;;;;;-1.20;1.00;;;;;;5115245;28;20334;-54
2022/03/05 01:21:17;;;;;;;;;;;-1.20;99.90;;;;;;5114410;28;19927;-49
2022/03/05 01:23:44;;;;;;;;;;;-1.10;99.90;;;;;;5114028;28;19973;-50
2022/03/05 01:26:10;;;;;;;;;;;-1.10;1.00;;;;;;5113381;28;19926;-53
2022/03/05 01:28:37;;;;;;;;;;;-1.10;1.00;;;;;;5113666;28;20389;-51
2022/03/05 01:31:05;;;;;;;;;;;-1.20;99.90;;;;;;5113902;28;19920;-49
2022/03/05 01:33:31;;;;;;;;;;;-1.20;91.30;;;;;;5113808;28;19919;-53
2022/03/05 01:35:58;;;;;;;;;;;-1.10;1.00;;;;;;5113186;28;19972;-53
2022/03/05 01:38:24;;;;;;;;;;;-1.10;99.90;;;;;;5113419;28;19946;-50
2022/03/05 01:40:51;;;;;;;;;;;-1.20;68.90;;;;;;5113778;28;19924;-52
2022/03/05 01:43:18;;;;;;;;;;;-1.20;99.90;;;;;;5113096;28;20018;-49
2022/03/05 01:45:45;;;;;;;;;;;-1.20;21.40;;;;;;5113498;28;19924;-50
2022/03/05 01:48:13;;;;;;;;;;;-1.20;99.90;;;;;;5112479;28;20369;-54
2022/03/05 01:50:39;;;;;;;;;;;-1.20;99.90;;;;;;5113544;28;19946;-50
2022/03/05 01:53:06;;;;;;;;;;;-1.20;99.90;;;;;;5113107;28;19965;-50
2022/03/05 01:55:33;;;;;;;;;;;-1.20;99.90;;;;;;5113270;28;19920;-51
2022/03/05 01:57:59;;;;;;;;;;;-1.20;1.00;;;;;;5112812;28;19919;-51
2022/03/05 02:00:26;;;;;;;;;;;-1.20;99.90;;;;;;5113468;28;19920;-49
2022/03/05 02:02:52;;;;;;;;;;;-1.20;1.00;;;;;;5113139;28;19924;-49
2022/03/05 02:05:20;;;;;;;;;;;-1.20;1.00;;;;;;5113057;28;19973;-49
2022/03/05 02:07:47;;;;;;;;;;;-1.20;1.00;;;;;;5112930;28;20331;-51
2022/03/05 02:10:14;;;;;;;;;;;-1.20;99.90;;;;;;5112890;28;19920;-53
2022/03/05 02:12:40;;;;;;;;;;;-1.20;99.90;;;;;;5118268;28;19926;-53
2022/03/05 02:15:08;;;;;;;;;;;-1.30;1.00;;;;;;5114488;28;19973;-53
2022/03/05 02:17:35;;;;;;;;;;;-1.40;1.00;;;;;;5112759;28;19919;-52
2022/03/05 02:20:02;;;;;;;;;;;-1.30;99.90;;;;;;5113114;28;19935;-56
2022/03/05 02:22:30;;;;;;;;;;;-1.30;1.00;;;;;;5112916;28;19920;-53
2022/03/05 02:24:58;;;;;;;;;;;-1.40;1.00;;;;;;5113218;28;19945;-55
2022/03/05 02:27:25;;;;;;;;;;;-1.40;99.90;;;;;;5112559;28;20098;-51
2022/03/05 02:29:51;;;;;;;;;;;-1.40;99.90;;;;;;5113058;28;19919;-52
2022/03/05 02:32:18;;;;;;;;;;;-1.40;99.90;;;;;;5112761;28;19992;-53
2022/03/05 02:34:44;;;;;;;;;;;-1.30;58.40;;;;;;5112678;28;20319;-53
2022/03/05 02:37:11;;;;;;;;;;;-1.30;99.90;;;;;;5112043;28;19920;-51
2022/03/05 02:39:39;;;;;;;;;;;-1.30;99.90;;;;;;5112693;28;19931;-51
2022/03/05 02:42:06;;;;;;;;;;;-1.30;99.90;;;;;;5112897;28;20342;-49
2022/03/05 02:44:32;;;;;;;;;;;-1.30;99.90;;;;;;5112860;28;19924;-50
2022/03/05 02:46:59;;;;;;;;;;;-1.20;99.90;;;;;;5112231;28;19920;-54
2022/03/05 02:49:26;;;;;;;;;;;-1.20;99.90;;;;;;5112399;28;19965;-55
2022/03/05 02:51:52;;;;;;;;;;;-1.30;99.90;;;;;;5112651;28;19920;-54
2022/03/05 02:54:20;;;;;;;;;;;-1.30;1.00;;;;;;5112330;28;19988;-50
2022/03/05 02:56:47;;;;;;;;;;;-1.30;20.00;;;;;;5112243;28;19926;-51
2022/03/05 02:59:14;;;;;;;;;;;-1.40;1.00;;;;;;5114266;28;19920;-54
2022/03/05 03:01:40;;;;;;;;;;;-1.40;1.00;;;;;;5116982;28;19924;-54
2022/03/05 03:04:07;;;;;;;;;;;-1.40;16.90;;;;;;5116692;28;19919;-50
2022/03/05 03:06:33;;;;;;;;;;;-1.30;1.00;;;;;;5115719;28;20393;-49
2022/03/05 03:09:00;;;;;;;;;;;-1.30;99.90;;;;;;5116432;28;20365;-50
2022/03/05 03:11:26;;;;;;;;;;;-1.30;99.90;;;;;;5116624;28;19965;-52
2022/03/05 03:13:54;;;;;;;;;;;-1.30;6.10;;;;;;5116569;28;19924;-52
2022/03/05 03:16:21;;;;;;;;;;;-1.30;1.00;;;;;;5116185;28;19920;-52
2022/03/05 03:18:47;;;;;;;;;;;-1.30;1.00;;;;;;5116526;28;19973;-53
2022/03/05 03:21:14;;;;;;;;;;;-1.40;99.90;;;;;;5115875;28;19926;-49
2022/03/05 03:23:40;;;;;;;;;;;-1.40;99.90;;;;;;5116541;28;19919;-53
2022/03/05 03:26:07;;;;;;;;;;;-1.40;1.00;;;;;;5116182;28;20000;-51
2022/03/05 03:28:33;;;;;;;;;;;-1.40;1.00;;;;;;5116151;28;19977;-53
2022/03/05 03:31:01;;;;;;;;;;;-1.50;99.90;;;;;;5116095;28;19920;-50
2022/03/05 03:33:28;;;;;;;;;;;-1.60;1.00;;;;;;5116362;28;19920;-49
2022/03/05 03:35:54;;;;;;;;;;;-1.70;99.90;;;;;;5116012;28;19975;-51
2022/03/05 03:38:21;;;;;;;;;;;-1.80;77.40;;;;;;5116041;28;19936;-50
2022/03/05 03:40:47;;;;;;;;;;;-1.80;1.00;;;;;;5115933;28;19973;-54
2022/03/05 03:43:14;;;;;;;;;;;-1.90;99.90;;;;;;5115938;28;20054;-50
2022/03/05 03:45:40;;;;;;;;;;;-1.90;99.90;;;;;;5115729;28;20277;-50
2022/03/05 03:48:08;;;;;;;;;;;-1.80;1.00;;;;;;5115106;28;20381;-50
2022/03/05 03:50:35;;;;;;;;;;;-1.80;99.90;;;;;;5115602;28;20362;-51
2022/03/05 03:53:02;;;;;;;;;;;-1.70;1.00;;;;;;5115601;28;19920;-50
2022/03/05 03:55:29;;;;;;;;;;;-1.60;99.90;;;;;;5115241;28;19996;-51
2022/03/05 03:57:55;;;;;;;;;;;-1.50;1.00;;;;;;5115386;28;19919;-51
2022/03/05 04:00:23;;;;;;;;;;;-1.50;99.90;;;;;;5115501;28;19919;-51
2022/03/05 04:02:50;;;;;;;;;;;-1.50;1.00;;;;;;5115351;28;19924;-51
2022/03/05 04:05:17;;;;;;;;;;;-1.50;99.90;;;;;;5114975;28;19920;-51
2022/03/05 04:10:28;;;;;;;;;;;-1.50;1.00;;;;;;5115021;28;20462;-53
2022/03/05 04:12:55;;;;;;;;;;;-1.50;99.90;;;;;;5115211;28;19919;-53
2022/03/05 04:15:22;;;;;;;;;;;-1.40;99.90;;;;;;5115130;28;19919;-50
2022/03/05 04:17:48;;;;;;;;;;;-1.50;1.00;;;;;;5115160;28;19973;-53
2022/03/05 04:20:15;;;;;;;;;;;-1.40;1.00;;;;;;5115213;28;19927;-56
2022/03/05 04:22:43;;;;;;;;;;;-1.40;99.90;;;;;;5115433;28;19920;-51
2022/03/05 04:25:09;;;;;;;;;;;-1.40;99.90;;;;;;5115723;28;20093;-52
2022/03/05 04:27:36;;;;;;;;;;;-1.30;1.00;;;;;;5114761;28;20393;-53
2022/03/05 04:30:03;;;;;;;;;;;-1.30;99.90;;;;;;5114874;28;19976;-51
2022/03/05 04:32:30;;;;;;;;;;;-1.20;99.90;;;;;;5115390;28;19923;-49
2022/03/05 04:34:56;;;;;;;;;;;-1.10;81.20;;;;;;5114773;28;19980;-49
2022/03/05 04:37:23;;;;;;;;;;;-1.00;1.00;;;;;;5114508;28;19920;-55
2022/03/05 04:39:51;;;;;;;;;;;-1.00;1.00;;;;;;5114860;28;19927;-50
2022/03/05 04:42:17;;;;;;;;;;;-1.00;1.00;;;;;;5114708;28;19923;-52
2022/03/05 04:44:44;;;;;;;;;;;-1.00;99.90;;;;;;5114779;28;19973;-49
2022/03/05 04:47:10;;;;;;;;;;;-1.00;99.90;;;;;;5114509;28;19972;-50
2022/03/05 04:49:37;;;;;;;;;;;-1.00;99.90;;;;;;5115571;28;19923;-53
2022/03/05 04:52:04;;;;;;;;;;;-1.00;99.90;;;;;;5114945;28;20389;-52
2022/03/05 04:54:33;;;;;;;;;;;-0.90;99.90;;;;;;5114870;28;19924;-51
2022/03/05 04:57:01;;;;;;;;;;;-0.90;99.90;;;;;;5114038;28;19923;-50
2022/03/05 04:59:27;;;;;;;;;;;-0.80;99.90;;;;;;5114892;28;19920;-52
2022/03/05 05:01:54;;;;;;;;;;;-0.80;99.90;;;;;;5114866;28;19920;-54
2022/03/05 05:04:20;;;;;;;;;;;-0.80;99.90;;;;;;5114737;28;19926;-50
2022/03/05 05:06:47;;;;;;;;;;;-0.90;99.90;;;;;;5114243;28;19973;-50
2022/03/05 05:09:13;;;;;;;;;;;-0.90;99.90;;;;;;5114349;28;20520;-51
2022/03/05 05:11:41;;;;;;;;;;;-0.90;99.90;;;;;;5114296;28;20056;-52
2022/03/05 05:14:10;;;;;;;;;;;-0.90;99.90;;;;;;5114200;28;19927;-52
2022/03/05 05:16:37;;;;;;;;;;;-0.80;89.60;;;;;;5114485;28;19975;-54
2022/03/05 05:21:48;;;;;;;;;;;-0.90;65.00;;;;;;5112871;28;19939;-53
2022/03/05 05:24:14;;;;;;;;;;;-0.80;57.60;;;;;;5113734;28;20412;-51
2022/03/05 05:26:41;;;;;;;;;;;-0.80;58.90;;;;;;5113746;28;19920;-52
2022/03/05 05:29:08;;;;;;;;;;;-0.80;61.00;;;;;;5113604;28;19920;-51
2022/03/05 05:31:36;;;;;;;;;;;-0.90;53.50;;;;;;5113483;28;19980;-52
2022/03/05 05:34:02;;;;;;;;;;;-0.80;37.40;;;;;;5113732;28;19965;-53
2022/03/05 05:36:29;;;;;;;;;;;-0.80;4.00;;;;;;5113022;28;19923;-50
2022/03/05 05:38:56;;;;;;;;;;;-0.80;1.00;;;;;;5113419;28;19919;-54
2022/03/05 05:41:22;;;;;;;;;;;-0.80;1.00;;;;;;5113641;28;19923;-52
2022/03/05 05:43:49;;;;;;;;;;;-0.80;1.00;;;;;;5113715;28;19965;-50
2022/03/05 05:46:15;;;;;;;;;;;-0.70;1.00;;;;;;5113179;28;20442;-50
2022/03/05 05:48:43;;;;;;;;;;;-0.70;1.00;;;;;;5113195;28;19927;-49
2022/03/05 05:51:10;;;;;;;;;;;-0.70;1.00;;;;;;5113418;28;19920;-49
2022/03/05 05:53:36;;;;;;;;;;;-0.70;1.00;;;;;;5113631;28;20352;-49
2022/03/05 05:56:03;;;;;;;;;;;-0.70;1.00;;;;;;5112898;28;19919;-53
2022/03/05 05:58:29;;;;;;;;;;;-0.60;1.00;;;;;;5113290;28;19919;-50
2022/03/05 06:00:56;;;;;;;;;;;-0.60;1.00;;;;;;5113218;28;19945;-49
2022/03/05 06:03:22;;;;;;;;;;;-0.60;1.00;;;;;;5112576;28;19924;-49
2022/03/05 06:05:50;;;;;;;;;;;-0.60;1.00;;;;;;5113524;28;19946;-50
2022/03/05 06:08:17;;;;;;;;;;;-0.60;1.00;;;;;;5113023;28;20334;-50
2022/03/05 06:10:43;;;;;;;;;;;-0.60;1.00;;;;;;5113076;28;20354;-50
2022/03/05 06:13:10;;;;;;;;;;;-0.50;1.00;;;;;;5112900;28;19919;-51
2022/03/05 06:15:36;;;;;;;;;;;-0.50;99.90;;;;;;5112982;28;19920;-51
2022/03/05 06:18:03;;;;;;;;;;;-0.50;99.90;;;;;;5112756;28;19973;-49
2022/03/05 06:20:30;;;;;;;;;;;-0.50;99.90;;;;;;5112522;28;19925;-50
2022/03/05 06:22:58;;;;;;;;;;;-0.50;99.90;;;;;;5113044;28;19981;-53
2022/03/05 06:25:24;;;;;;;;;;;-0.50;99.90;;;;;;5113038;28;19973;-50
2022/03/05 06:27:51;;;;;;;;;;;-0.60;99.90;;;;;;5112533;28;19965;-49
2022/03/05 06:30:17;;;;;;;;;;;-0.50;99.90;;;;;;5112817;28;19923;-51
2022/03/05 06:32:44;;;;;;;;;;;-0.50;99.90;;;;;;5112354;28;20343;-53
2022/03/05 06:35:11;;;;;;;;;;;-0.50;99.90;;;;;;5112980;28;19935;-53
2022/03/05 06:37:37;;;;;;;;;;;-0.50;99.90;;;;;;5112171;28;19924;-51
2022/03/05 06:40:06;;;;;;;;;;;-0.50;99.90;;;;;;5113025;28;19920;-56
2022/03/05 06:42:33;;;;;;;;;;;-0.50;99.90;;;;;;5112588;28;19969;-57
2022/03/05 06:44:59;;;;;;;;;;;-0.50;99.90;;;;;;5113100;28;19919;-52
2022/03/05 06:47:26;;;;;;;;;;;-0.40;99.90;;;;;;5113407;28;20401;-54
2022/03/05 06:49:53;;;;;;;;;;;-0.40;99.90;;;;;;5113787;28;19973;-52
2022/03/05 06:52:19;;;;;;;;;;;-0.30;99.90;;;;;;5113447;28;19920;-51
2022/03/05 06:54:46;;;;;;;;;;;-0.30;99.90;;;;;;5112584;28;19927;-51
2022/03/05 06:57:14;;;;;;;;;;;-0.30;99.90;;;;;;5112328;28;19927;-52
2022/03/05 06:59:40;;;;;;;;;;;-0.20;99.90;;;;;;5104289;28;20338;-52
2022/03/05 07:02:07;;;;;;;;;;;-0.10;99.90;;;;;;5112529;28;19924;-51
2022/03/05 07:04:34;;;;;;;;;;;0.00;99.90;;;;;;5112604;28;19964;-53
2022/03/05 07:07:01;;;;;;;;;;;0.00;99.90;;;;;;5112130;28;19920;-54
2022/03/05 07:09:27;;;;;;;;;;;0.10;99.90;;;;;;5112500;28;19923;-55
2022/03/05 07:11:54;;;;;;;;;;;0.20;99.90;;;;;;5112279;28;20280;-54
2022/03/05 07:14:22;;;;;;;;;;;0.30;99.90;;;;;;5112393;28;19919;-53
2022/03/05 07:16:48;;;;;;;;;;;0.30;99.90;;;;;;5111883;28;19973;-52
2022/03/05 07:19:15;;;;;;;;;;;0.40;99.90;;;;;;5112211;28;20434;-54
2022/03/05 07:21:41;;;;;;;;;;;0.50;99.90;;;;;;5112457;28;19919;-49
2022/03/05 07:24:08;;;;;;;;;;;0.60;96.50;;;;;;5112026;28;19923;-54
2022/03/05 07:26:35;;;;;;;;;;;0.70;53.80;;;;;;5112296;28;19963;-52
2022/03/05 07:29:01;;;;;;;;;;;0.80;19.30;;;;;;5112092;28;19973;-54
2022/03/05 07:31:29;;;;;;;;;;;0.90;1.00;;;;;;5112574;28;19972;-54
2022/03/05 07:33:56;;;;;;;;;;;1.00;1.00;;;;;;5112249;28;20056;-56
2022/03/05 07:36:22;;;;;;;;;;;1.10;1.00;;;;;;5111526;28;19919;-53
2022/03/05 07:38:49;;;;;;;;;;;1.30;1.00;;;;;;5112121;28;19924;-52
2022/03/05 07:41:15;;;;;;;;;;;1.40;1.00;;;;;;5112256;28;19973;-55
2022/03/05 07:43:42;;;;;;;;;;;1.50;1.00;;;;;;5111779;28;19972;-54
2022/03/05 07:46:09;;;;;;;;;;;1.60;1.00;;;;;;5114846;28;19919;-53
2022/03/05 07:48:37;;;;;;;;;;;1.70;1.00;;;;;;5116187;28;19920;-55
2022/03/05 07:51:04;;;;;;;;;;;1.80;1.00;;;;;;5115913;28;19976;-51
2022/03/05 07:53:31;;;;;;;;;;;1.90;1.00;;;;;;5115944;28;19965;-54
2022/03/05 07:55:58;;;;;;;;;;;2.00;99.90;;;;;;5115128;28;19941;-54
2022/03/05 07:58:24;;;;;;;;;;;2.10;99.90;;;;;;5115774;28;19945;-55
2022/03/05 08:00:51;;;;;;;;;;;2.20;99.90;;;;;;5115625;28;19920;-53
2022/03/05 08:03:18;;;;;;;;;;;2.30;99.90;;;;;;5115884;28;20435;-52
2022/03/05 08:05:45;;;;;;;;;;;2.40;99.90;;;;;;5107186;28;19972;-51
2022/03/05 08:08:12;;;;;;;;;;;2.50;99.90;;;;;;5114484;28;19923;-55
2022/03/05 08:10:39;;;;;;;;;;;2.60;99.90;;;;;;5115531;28;19956;-55
2022/03/05 08:13:06;;;;;;;;;;;2.70;99.90;;;;;;5115457;28;19923;-53
2022/03/05 08:15:32;;;;;;;;;;;2.80;99.90;;;;;;5115349;28;19965;-56
2022/03/05 08:17:59;;;;;;;;;;;2.90;99.90;;;;;;5116230;28;20323;-55
2022/03/05 08:20:26;;;;;;;;;;;3.00;99.90;;;;;;5115372;28;19942;-52
2022/03/05 08:22:55;;;;;;;;;;;3.20;99.90;;;;;;5115067;28;19924;-54
2022/03/05 08:25:21;;;;;;;;;;;3.20;99.90;;;;;;5114743;28;19989;-56
2022/03/05 08:27:48;;;;;;;;;;;3.20;99.90;;;;;;5114606;28;19919;-55
2022/03/05 08:30:16;;;;;;;;;;;3.40;99.90;;;;;;5114801;28;19920;-55
2022/03/05 08:32:42;;;;;;;;;;;3.50;99.90;;;;;;5114974;28;20045;-58
2022/03/05 08:35:09;;;;;;;;;;;3.60;99.90;;;;;;5114749;28;19919;-54
2022/03/05 08:37:37;;;;;;;;;;;3.70;99.90;;;;;;5114311;28;19945;-55
2022/03/05 08:40:06;;;;;;;;;;;3.80;99.90;;;;;;5114649;28;20911;-54
2022/03/05 08:42:32;;;;;;;;;;;3.90;99.90;;;;;;5115099;28;19919;-52
2022/03/05 08:44:59;;;;;;;;;;;4.00;99.90;;;;;;5114853;28;19920;-62
2022/03/05 08:47:25;;;;;;;;;;;4.10;99.90;;;;;;5084138;28;19919;-60
2022/03/05 08:49:52;;;;;;;;;;;4.20;99.90;;;;;;5074865;28;20397;-56
2022/03/05 08:52:19;;;;;;;;;;;4.20;99.90;;;;;;5073171;28;19924;-56
2022/03/05 08:54:45;;;;;;;;;;;4.40;99.90;;;;;;5073490;28;19920;-55
2022/03/05 08:57:13;;;;;;;;;;;4.50;99.90;;;;;;5069866;28;20325;-58
2022/03/05 08:59:40;;;;;;;;;;;4.60;99.90;;;;;;5087421;28;19920;-52
2022/03/05 09:02:07;;;;;;;;;;;4.80;99.90;;;;;;5147922;22;20315;-62
2022/03/05 09:04:33;;;;;;;;;;;4.80;99.90;;;;;;5092557;28;19931;-62
2022/03/05 09:07:00;;;;;;;;;;;4.80;99.90;;;;;;5087057;28;19920;-63
2022/03/05 09:09:27;;;;;;;;;;;4.90;99.90;;;;;;5093527;22;20185;-61
2022/03/05 09:11:54;;;;;;;;;;;4.70;99.90;;;;;;5066435;23;1030101;-55
2022/03/05 09:14:22;;;;;;;;;;;4.80;99.90;;;;;;5084251;28;19924;-58
2022/03/05 09:16:49;;;;;;;;;;;5.00;99.90;;;;;;5141684;22;20014;-61
2022/03/05 09:19:15;;;;;;;;;;;5.20;99.90;;;;;;5093167;28;19919;-62
2022/03/05 09:21:42;;;;;;;;;;;5.40;99.90;;;;;;5092740;28;19935;-61
2022/03/05 09:24:08;;;;;;;;;;;5.40;99.90;;;;;;5093492;28;19920;-61
2022/03/05 09:26:35;;;;;;;;;;;5.40;99.90;;;;;;5092508;28;19946;-62
2022/03/05 09:29:01;;;;;;;;;;;5.40;99.90;;;;;;5092794;28;19924;-62
2022/03/05 09:31:29;;;;;;;;;;;5.40;99.90;;;;;;5093367;28;19965;-63
2022/03/05 09:33:56;;;;;;;;;;;5.60;99.90;;;;;;5088998;28;20308;-61
2022/03/05 09:36:23;;;;;;;;;;;5.70;99.90;;;;;;5092580;28;19978;-61
2022/03/05 09:38:49;;;;;;;;;;;5.90;99.90;;;;;;5092795;28;19920;-60
2022/03/05 09:41:16;;;;;;;;;;;6.00;99.90;;;;;;5093106;28;19920;-62
2022/03/05 09:43:43;;;;;;;;;;;6.00;99.90;;;;;;5092803;28;19920;-62
2022/03/05 09:46:10;;;;;;;;;;;6.20;99.90;;;;;;5117564;22;19970;-61
2022/03/05 09:48:38;;;;;;;;;;;6.30;99.90;;;;;;5092231;28;19974;-61
2022/03/05 09:51:04;;;;;;;;;;;6.40;99.90;;;;;;5092917;28;20446;-61
2022/03/05 09:53:32;;;;;;;;;;;6.40;99.90;;;;;;5093066;28;19927;-60
2022/03/05 09:55:58;;;;;;;;;;;6.50;99.90;;;;;;5094077;28;19920;-62
2022/03/05 09:58:25;;;;;;;;;;;6.70;99.90;;;;;;5092950;28;19923;-61
2022/03/05 10:00:52;;;;;;;;;;;6.70;99.90;;;;;;5118002;22;20343;-57
2022/03/05 10:03:19;;;;;;;;;;;6.80;99.90;;;;;;5092678;28;19928;-58
2022/03/05 10:05:47;;;;;;;;;;;6.90;99.90;;;;;;5106396;22;20411;-60
2022/03/05 10:08:15;;;;;;;;;;;6.90;99.90;;;;;;5116755;22;19945;-61
2022/03/05 10:10:43;;;;;;;;;;;7.00;99.90;;;;;;5092030;28;20022;-63
2022/03/05 10:13:17;;;;;;;;;;;7.10;99.90;;;;;;5092659;28;19920;-59
2022/03/05 10:15:44;;;;;;;;;;;7.10;99.90;;;;;;5104281;22;19919;-57
2022/03/05 10:18:10;;;;;;;;;;;7.30;99.90;;;;;;5091038;28;19920;-57
2022/03/05 10:20:43;;;;;;;;;;;7.40;99.90;;;;;;5116719;22;20297;-63
2022/03/05 10:23:12;;;;;;;;;;;7.40;99.90;;;;;;5091847;28;19920;-61
2022/03/05 10:25:39;;;;;;;;;;;7.40;99.90;;;;;;5108520;22;19956;-61
2022/03/05 10:28:10;;;;;;;;;;;7.60;99.90;;;;;;5090929;28;19920;-62
2022/03/05 10:33:25;;;;;;;;;;;7.70;99.90;;;;;;5101759;22;19926;-62
2022/03/05 10:35:52;;;;;;;;;;;7.70;99.90;;;;;;5091063;28;19920;-62
2022/03/05 10:38:20;;;;;;;;;;;7.80;99.90;;;;;;5094309;22;19920;-61
2022/03/05 10:41:00;;;;;;;;;;;7.90;99.90;;;;;;5050859;28;20496;-62
2022/03/05 10:43:29;;;;;;;;;;;8.00;99.90;;;;;;5050855;28;19971;-61
2022/03/05 10:45:58;;;;;;;;;;;8.20;99.90;;;;;;5051322;28;19921;-61
2022/03/05 10:48:25;;;;;;;;;;;8.10;99.90;;;;;;5074446;22;19922;-56
2022/03/05 10:50:56;;;;;;;;;;;8.10;99.90;;;;;;5117465;22;20410;-57
2022/03/05 10:53:36;;;;;;;;;;;8.30;99.90;;;;;;5090904;28;19924;-55
2022/03/05 10:56:17;;;;;;;;;;;8.30;99.90;;;;;;5091433;28;20383;-55
2022/03/05 10:58:44;;;;;;;;;;;8.40;99.90;;;;;;5111530;22;20549;-60
2022/03/05 11:01:10;;;;;;;;;;;8.30;99.90;;;;;;5107148;28;19923;-61
2022/03/05 11:03:37;;;;;;;;;;;8.20;99.90;;;;;;5122076;22;19904;-62
2022/03/05 11:06:04;;;;;;;;;;;8.30;99.90;;;;;;5103180;22;19965;-62
2022/03/05 11:08:30;;;;;;;;;;;8.50;99.90;;;;;;5091435;28;19958;-61
2022/03/05 11:10:58;;;;;;;;;;;8.50;99.90;;;;;;5116565;23;19966;-62
2022/03/05 11:13:25;;;;;;;;;;;8.40;99.90;;;;;;5092778;28;19920;-64
2022/03/05 11:15:51;;;;;;;;;;;8.20;99.90;;;;;;5105499;22;19924;-60
2022/03/05 11:20:53;;;;;;;;;;;8.50;99.90;;;;;;5052641;28;19921;-59
2022/03/05 11:25:53;;;;;;;;;;;8.70;99.90;;;;;;5074862;22;19920;-62
2022/03/05 11:28:22;;;;;;;;;;;8.90;99.90;;;;;;5086438;28;19919;-61
2022/03/05 11:30:53;;;;;;;;;;;8.80;99.90;;;;;;5097399;22;19924;-60
2022/03/05 11:33:26;;;;;;;;;;;8.90;99.90;;;;;;5075305;28;19924;-60
2022/03/05 11:36:02;;;;;;;;;;;8.60;99.90;;;;;;5088726;22;19920;-57
2022/03/05 11:38:32;;;;;;;;;;;8.70;99.90;;;;;;5074824;28;19920;-55
2022/03/05 11:40:58;;;;;;;;;;;8.90;99.90;;;;;;5074877;28;19920;-56
2022/03/05 11:43:27;;;;;;;;;;;8.90;99.90;;;;;;5074187;28;19920;-56
2022/03/05 11:48:26;;;;;;;;;;;9.00;99.90;;;;;;5073167;28;19927;-59
2022/03/05 11:50:53;;;;;;;;;;;9.00;99.90;;;;;;5074571;28;19920;-57
2022/03/05 11:53:19;;;;;;;;;;;9.20;99.90;;;;;;5114473;22;19920;-62
2022/03/05 11:55:47;;;;;;;;;;;9.20;99.90;;;;;;5094174;28;19920;-64
2022/03/05 11:58:18;;;;;;;;;;;9.30;99.90;;;;;;5094421;28;19924;-62
2022/03/05 12:00:49;;;;;;;;;;;9.10;99.90;;;;;;5123094;22;19927;-62
2022/03/05 12:03:36;;;;;;;;;;;9.20;99.90;;;;;;5095144;28;19973;-62
2022/03/05 12:06:03;;;;;;;;;;;9.00;99.90;;;;;;5137310;22;19924;-59
2022/03/05 12:08:47;;;;;;;;;;;9.10;99.90;;;;;;5094737;28;19924;-59
2022/03/05 12:11:14;;;;;;;;;;;9.30;99.90;;;;;;5072252;28;19920;-58
2022/03/05 12:13:42;;;;;;;;;;;9.30;99.90;;;;;;5124318;22;19924;-63
2022/03/05 12:16:17;;;;;;;;;;;9.30;99.90;;;;;;5094151;28;19920;-61
2022/03/05 12:18:44;;;;;;;;;;;9.30;99.90;;;;;;5140861;22;19928;-61
2022/03/05 12:21:11;;;;;;;;;;;9.40;99.90;;;;;;5108853;22;19920;-62
2022/03/05 12:23:37;;;;;;;;;;;9.20;99.90;;;;;;5101819;22;19920;-57
2022/03/05 12:26:04;;;;;;;;;;;9.30;99.90;;;;;;5108263;22;19927;-56
2022/03/05 12:28:39;;;;;;;;;;;9.30;99.90;;;;;;5094077;28;19920;-52
2022/03/05 12:31:06;;;;;;;;;;;9.40;99.90;;;;;;5123632;22;19924;-61
2022/03/05 12:33:34;;;;;;;;;;;9.40;99.90;;;;;;5094499;28;20324;-61
2022/03/05 12:36:01;;;;;;;;;;;9.30;99.90;;;;;;5093405;28;19920;-61
2022/03/05 12:38:28;;;;;;;;;;;9.40;99.90;;;;;;5108372;22;20433;-58
2022/03/05 12:40:54;;;;;;;;;;;9.30;99.90;;;;;;5093724;28;19974;-55
2022/03/05 12:43:21;;;;;;;;;;;9.40;99.90;;;;;;5238291;22;19920;-61
2022/03/05 12:45:49;;;;;;;;;;;9.30;99.90;;;;;;5093576;28;19924;-62
2022/03/05 12:48:17;;;;;;;;;;;9.10;99.90;;;;;;5137240;22;20385;-54
2022/03/05 12:50:45;;;;;;;;;;;9.20;99.90;;;;;;5094283;28;20328;-55
2022/03/05 12:53:13;;;;;;;;;;;9.40;99.90;;;;;;5102051;22;19920;-64
2022/03/05 12:58:14;;;;;;;;;;;9.30;99.90;;;;;;5130930;27;19920;-60
2022/03/05 13:00:41;;;;;;;;;;;9.30;99.90;;;;;;5135465;27;20369;-61
2022/03/05 13:03:09;;;;;;;;;;;9.30;99.90;;;;;;5124964;22;20346;-59
2022/03/05 13:05:35;;;;;;;;;;;9.20;99.90;;;;;;5093947;28;20274;-57
2022/03/05 13:08:03;;;;;;;;;;;9.50;99.90;;;;;;5092566;28;19977;-57
2022/03/05 13:10:30;;;;;;;;;;;9.60;99.90;;;;;;5110419;22;20342;-63
2022/03/05 13:12:56;;;;;;;;;;;9.60;99.90;;;;;;5093283;28;19924;-61
2022/03/05 13:15:25;;;;;;;;;;;9.20;99.90;;;;;;5117577;22;20709;-64
2022/03/05 13:17:51;;;;;;;;;;;9.10;99.90;;;;;;5092825;28;19965;-62
2022/03/05 13:20:18;;;;;;;;;;;9.00;99.90;;;;;;5122013;22;19965;-62
2022/03/05 13:22:46;;;;;;;;;;;8.90;99.90;;;;;;5093192;28;19924;-63
2022/03/05 13:25:14;;;;;;;;;;;8.80;99.90;;;;;;5092773;28;20305;-64
2022/03/05 13:27:40;;;;;;;;;;;8.90;99.90;;;;;;5121216;22;19989;-63
2022/03/05 13:30:08;;;;;;;;;;;9.10;99.90;;;;;;5093131;28;19920;-62
2022/03/05 13:32:41;;;;;;;;;;;9.30;99.90;;;;;;5145809;22;20010;-62
2022/03/05 13:35:08;;;;;;;;;;;9.50;99.90;;;;;;5093029;28;19924;-62
2022/03/05 13:37:37;;;;;;;;;;;9.70;99.90;;;;;;5116358;22;19953;-65
2022/03/05 13:40:04;;;;;;;;;;;9.80;99.90;;;;;;5072324;28;20298;-64
2022/03/05 13:42:34;;;;;;;;;;;9.70;99.90;;;;;;5116500;22;19920;-67
2022/03/05 13:45:01;;;;;;;;;;;9.90;99.90;;;;;;5091800;28;19920;-62
2022/03/05 13:47:27;;;;;;;;;;;9.60;99.90;;;;;;5092918;28;19924;-64
2022/03/05 13:49:59;;;;;;;;;;;9.60;99.90;;;;;;5092846;28;19973;-63
2022/03/05 13:52:26;;;;;;;;;;;9.70;99.90;;;;;;5093137;28;19920;-62
2022/03/05 13:54:53;;;;;;;;;;;9.70;99.90;;;;;;5093629;28;19924;-62
2022/03/05 13:57:27;;;;;;;;;;;9.50;99.90;;;;;;5093081;28;19985;-62
2022/03/05 13:59:55;;;;;;;;;;;9.70;99.90;;;;;;5092971;28;19919;-65
2022/03/05 14:02:30;;;;;;;;;;;9.80;99.90;;;;;;5093007;28;19920;-64
2022/03/05 14:04:57;;;;;;;;;;;9.60;99.90;;;;;;5092675;28;19946;-63
2022/03/05 14:07:24;;;;;;;;;;;9.40;99.90;;;;;;5092721;28;19920;-64
2022/03/05 14:09:50;;;;;;;;;;;9.40;99.90;;;;;;5093170;28;20009;-64
2022/03/05 14:12:18;;;;;;;;;;;9.40;99.90;;;;;;5092832;28;20023;-64
2022/03/05 14:14:50;;;;;;;;;;;9.20;99.90;;;;;;5093017;28;19920;-64
2022/03/05 14:17:29;;;;;;;;;;;9.20;99.90;;;;;;5092456;28;19920;-64
2022/03/05 14:20:09;;;;;;;;;;;9.20;99.90;;;;;;5092903;28;19920;-64
2022/03/05 14:22:36;;;;;;;;;;;9.30;99.90;;;;;;5090725;28;19923;-61
2022/03/05 14:25:03;;;;;;;;;;;9.40;99.90;;;;;;5098408;28;19924;-64
2022/03/05 14:27:29;;;;;;;;;;;9.30;99.90;;;;;;5201372;22;20062;-61
2022/03/05 14:29:56;;;;;;;;;;;9.40;99.90;;;;;;5052118;28;19967;-61
2022/03/05 14:32:22;;;;;;;;;;;9.40;99.90;;;;;;5069010;22;19990;-53
2022/03/05 14:34:50;;;;;;;;;;;9.30;99.90;;;;;;5071590;28;19982;-55
2022/03/05 14:39:47;;;;;;;;;;;9.30;99.90;;;;;;5087574;22;19927;-58
2022/03/05 14:42:13;;;;;;;;;;;9.20;99.90;;;;;;5071806;28;19986;-61
2022/03/05 14:44:40;;;;;;;;;;;9.20;99.90;;;;;;5145317;22;19928;-59
2022/03/05 14:47:06;;;;;;;;;;;9.30;99.90;;;;;;5072151;28;19924;-55